Time;durP1;ratioP1;P1;durP2;ratioP2;P2;SDS_P1;SDS_P2;PMS_P1;PMS_P2;Temp;Humidity;BMP_temperature;BMP_pressure;BME280_temperature;BME280_humidity;BME280_pressure;Samples;Min_cycle;Max_cycle;Signal;HPM_P1;HPM_P2
2022/01/31 00:00:35;;;;;;;42.28;14.25;;;;;;;6.76;59.49;101335.69;5257275;28;20524;-46
2022/01/31 00:03:07;;;;;;;47.95;15.85;;;;;;;6.74;59.64;101314.78;5259096;27;20500;-45
2022/01/31 00:05:41;;;;;;;43.97;15.38;;;;;;;6.74;59.52;101301.66;5269597;28;20895;-45
2022/01/31 00:08:14;;;;;;;39.83;15.20;;;;;;;6.56;59.74;101274.13;5261744;28;20789;-46
2022/01/31 00:10:47;;;;;;;54.53;15.40;;;;;;;6.72;59.58;101306.19;5264568;28;20404;-48
2022/01/31 00:13:23;;;;;;;41.42;15.43;;;;;;;6.74;59.58;101296.41;5258571;27;20436;-47
2022/01/31 00:15:57;;;;;;;53.80;16.13;;;;;;;6.75;60.04;101284.97;5261918;28;20507;-46
2022/01/31 00:18:30;;;;;;;39.25;15.23;;;;;;;6.78;59.81;101273.38;5258158;28;20784;-46
2022/01/31 00:21:03;;;;;;;42.15;15.43;;;;;;;6.75;60.07;101258.72;5257884;28;20425;-46
2022/01/31 00:23:36;;;;;;;45.47;14.43;;;;;;;6.74;59.96;101246.53;5262363;28;20420;-47
2022/01/31 00:26:09;;;;;;;46.60;13.32;;;;;;;6.72;60.02;101237.94;5261109;28;20795;-46
2022/01/31 00:28:41;;;;;;;33.53;11.02;;;;;;;6.74;60.27;101224.69;5255603;28;21102;-48
2022/01/31 00:31:13;;;;;;;37.33;10.32;;;;;;;6.77;60.29;101216.59;5254142;28;20414;-47
2022/01/31 00:33:46;;;;;;;30.70;11.25;;;;;;;6.81;60.27;101204.91;5259373;28;20814;-48
2022/01/31 00:36:20;;;;;;;31.70;8.17;;;;;;;6.81;60.28;101192.59;5257134;28;20520;-46
2022/01/31 00:38:52;;;;;;;42.22;10.43;;;;;;;6.84;60.31;101189.75;5262769;28;20888;-46
2022/01/31 00:41:24;;;;;;;36.13;9.25;;;;;;;6.89;60.36;101176.28;5264110;28;20416;-48
2022/01/31 00:44:01;;;;;;;29.47;8.27;;;;;;;6.91;60.64;101154.22;5254316;28;20457;-50
2022/01/31 00:46:39;;;;;;;31.88;8.07;;;;;;;6.90;60.61;101136.75;5260434;28;20839;-46
2022/01/31 00:49:22;;;;;;;30.43;7.73;;;;;;;6.91;60.73;101121.88;5260862;28;20422;-49
2022/01/31 00:51:56;;;;;;;34.38;7.40;;;;;;;6.97;60.73;101121.41;5257431;28;20418;-50
2022/01/31 00:54:29;;;;;;;29.80;8.25;;;;;;;6.99;60.92;101108.13;5260768;27;20410;-46
2022/01/31 00:57:01;;;;;;;41.30;7.93;;;;;;;7.04;60.88;101090.22;5262361;28;20490;-46
2022/01/31 00:59:34;;;;;;;26.67;8.88;;;;;;;7.11;60.94;101088.78;5245684;28;20434;-47
2022/01/31 01:02:06;;;;;;;28.80;8.10;;;;;;;7.11;61.07;101071.22;5260276;28;20455;-48
2022/01/31 01:04:40;;;;;;;27.53;7.77;;;;;;;7.15;61.17;101066.56;5260222;28;20794;-52
2022/01/31 01:07:14;;;;;;;29.70;6.63;;;;;;;7.20;61.04;101043.41;5260020;27;20417;-52
2022/01/31 01:09:47;;;;;;;30.98;8.18;;;;;;;7.27;61.05;101041.13;5270440;28;20409;-45
2022/01/31 01:12:20;;;;;;;27.83;6.87;;;;;;;7.34;61.16;101037.88;5263961;28;20465;-46
2022/01/31 01:14:53;;;;;;;27.98;7.43;;;;;;;7.38;61.11;101041.94;5261935;27;20412;-45
2022/01/31 01:17:25;;;;;;;24.30;5.82;;;;;;;7.39;61.28;101022.56;5256805;28;20410;-48
2022/01/31 01:19:58;;;;;;;27.45;6.88;;;;;;;7.34;61.40;101014.25;5262084;28;20414;-46
2022/01/31 01:22:31;;;;;;;35.25;7.32;;;;;;;7.51;61.33;101012.84;5260354;28;20499;-46
2022/01/31 01:25:06;;;;;;;25.50;6.28;;;;;;;7.58;61.57;101007.91;5262491;28;20416;-45
2022/01/31 01:27:39;;;;;;;30.13;8.57;;;;;;;7.65;61.43;101001.22;5264396;28;20429;-46
2022/01/31 01:30:14;;;;;;;33.22;7.20;;;;;;;7.68;61.53;101000.09;5264143;27;20461;-49
2022/01/31 01:32:59;;;;;;;36.53;8.73;;;;;;;7.62;61.61;100960.25;5260881;27;20432;-46
2022/01/31 01:35:33;;;;;;;33.17;8.10;;;;;;;7.76;61.56;100981.91;5261151;27;20805;-45
2022/01/31 01:38:07;;;;;;;26.58;7.07;;;;;;;7.77;61.84;100962.53;5264488;28;20491;-50
2022/01/31 01:40:41;;;;;;;30.57;9.40;;;;;;;7.73;61.61;100945.38;5260794;28;20501;-50
2022/01/31 01:43:16;;;;;;;37.40;7.95;;;;;;;7.88;61.86;100951.13;5260684;27;20785;-48
2022/01/31 01:45:53;;;;;;;28.98;7.22;;;;;;;7.93;61.90;100920.00;5265951;28;20430;-44
2022/01/31 01:48:26;;;;;;;43.33;9.55;;;;;;;7.89;61.90;100939.63;5259092;28;20755;-56
2022/01/31 01:51:00;;;;;;;39.57;8.87;;;;;;;7.98;62.00;100938.88;5265952;28;20628;-46
2022/01/31 01:53:34;;;;;;;45.30;8.57;;;;;;;7.97;62.00;100924.88;5265779;28;20420;-45
2022/01/31 01:56:07;;;;;;;41.65;8.88;;;;;;;8.05;62.00;100927.69;5265481;28;20450;-45
2022/01/31 01:58:42;;;;;;;37.27;7.10;;;;;;;8.09;62.00;100920.38;5262911;27;20494;-45
2022/01/31 02:01:14;;;;;;;46.83;8.45;;;;;;;8.12;62.01;100925.38;5265362;27;20420;-45
2022/01/31 02:03:47;;;;;;;28.67;7.65;;;;;;;8.12;62.07;100909.59;5265475;28;20397;-45
2022/01/31 02:06:19;;;;;;;22.63;5.55;;;;;;;8.16;62.15;100910.97;5263326;28;20484;-49
2022/01/31 02:08:53;;;;;;;27.83;8.13;;;;;;;8.19;62.20;100902.84;5263460;27;20420;-45
2022/01/31 02:11:25;;;;;;;27.00;7.60;;;;;;;8.16;62.12;100874.16;5259795;28;20426;-46
2022/01/31 02:13:58;;;;;;;27.73;7.17;;;;;;;8.23;62.21;100895.50;5259392;28;20462;-45
2022/01/31 02:16:30;;;;;;;28.67;7.18;;;;;;;8.25;62.18;100889.16;5264985;28;20510;-45
2022/01/31 02:19:03;;;;;;;23.67;6.68;;;;;;;8.14;62.00;100875.25;5266442;28;20424;-46
2022/01/31 02:21:36;;;;;;;26.20;7.30;;;;;;;8.26;62.06;100888.16;5262991;28;20436;-47
2022/01/31 02:24:09;;;;;;;29.60;7.60;;;;;;;8.27;62.10;100883.75;5264788;28;20501;-45
2022/01/31 02:26:41;;;;;;;24.80;7.18;;;;;;;8.28;62.07;100888.88;5267197;28;20452;-45
2022/01/31 02:29:14;;;;;;;23.58;5.85;;;;;;;8.29;62.13;100885.28;5259819;28;20418;-45
2022/01/31 02:31:47;;;;;;;24.25;6.22;;;;;;;8.31;62.06;100888.59;5266555;28;20889;-48
2022/01/31 02:34:20;;;;;;;28.25;6.90;;;;;;;8.30;62.18;100871.16;5265615;28;20436;-48
2022/01/31 02:36:54;;;;;;;23.27;6.53;;;;;;;8.34;61.96;100870.91;5262318;28;20548;-50
2022/01/31 02:39:26;;;;;;;30.23;7.07;;;;;;;8.35;61.95;100846.25;5260823;28;20405;-47
2022/01/31 02:41:58;;;;;;;21.20;6.07;;;;;;;8.35;62.01;100840.97;5263674;28;20515;-44
2022/01/31 02:44:31;;;;;;;28.35;8.07;;;;;;;8.36;62.05;100842.63;5266058;28;20413;-50
2022/01/31 02:47:09;;;;;;;31.70;8.37;;;;;;;8.36;61.91;100863.69;5263106;27;20416;-45
2022/01/31 02:49:48;;;;;;;35.47;7.18;;;;;;;8.40;61.89;100865.13;5262022;28;20507;-53
2022/01/31 02:52:24;;;;;;;29.95;7.63;;;;;;;8.40;62.04;100854.59;5262167;27;20637;-46
2022/01/31 02:54:56;;;;;;;27.17;6.82;;;;;;;8.32;61.82;100842.91;5261792;28;20416;-47
2022/01/31 02:57:28;;;;;;;27.08;6.95;;;;;;;8.32;61.95;100855.22;5261673;28;20495;-45
2022/01/31 03:00:01;;;;;;;23.53;5.93;;;;;;;8.34;61.83;100861.19;5264892;28;20425;-50
2022/01/31 03:02:33;;;;;;;23.48;6.82;;;;;;;8.34;61.86;100849.84;5262847;28;20771;-49
2022/01/31 03:05:06;;;;;;;23.05;5.95;;;;;;;8.38;61.90;100851.22;5261524;28;20408;-56
2022/01/31 03:07:40;;;;;;;21.25;5.78;;;;;;;8.38;61.95;100835.44;5262345;28;20491;-47
2022/01/31 03:10:12;;;;;;;26.60;6.15;;;;;;;8.37;61.89;100846.94;5268338;28;20919;-53
2022/01/31 03:12:45;;;;;;;22.70;5.60;;;;;;;8.34;61.81;100827.00;5257148;28;20422;-53
2022/01/31 03:15:18;;;;;;;21.17;5.63;;;;;;;8.35;62.02;100838.34;5262237;28;20414;-49
2022/01/31 03:17:51;;;;;;;22.95;6.88;;;;;;;8.35;61.85;100833.91;5260197;28;20413;-46
2022/01/31 03:20:24;;;;;;;29.85;7.28;;;;;;;8.32;61.77;100821.84;5266050;27;20404;-50
2022/01/31 03:22:59;;;;;;;29.58;6.50;;;;;;;8.21;61.82;100798.31;5264408;28;20412;-48
2022/01/31 03:25:33;;;;;;;31.77;7.68;;;;;;;8.38;61.61;100809.97;5263217;28;21220;-49
2022/01/31 03:28:06;;;;;;;30.40;6.90;;;;;;;8.37;61.56;100797.78;5263023;28;20757;-56
2022/01/31 03:30:38;;;;;;;27.08;6.60;;;;;;;8.37;61.56;100791.69;5264324;28;20430;-46
2022/01/31 03:33:11;;;;;;;23.85;6.80;;;;;;;8.25;61.57;100778.63;5259918;28;20842;-45
2022/01/31 03:35:43;;;;;;;32.60;6.80;;;;;;;8.34;61.61;100798.03;5259829;28;20559;-46
2022/01/31 03:38:19;;;;;;;35.47;7.55;;;;;;;8.34;61.74;100799.84;5265099;28;21435;-50
2022/01/31 03:40:52;;;;;;;32.15;7.00;;;;;;;8.35;61.59;100798.88;5266106;28;20409;-50
2022/01/31 03:43:24;;;;;;;25.90;7.93;;;;;;;8.38;61.43;100793.34;5266854;28;20736;-48
2022/01/31 03:45:56;;;;;;;28.27;7.55;;;;;;;8.36;61.54;100800.53;5254766;27;20412;-48
2022/01/31 03:48:29;;;;;;;25.50;7.47;;;;;;;8.35;61.37;100789.16;5261064;27;20404;-48
2022/01/31 03:51:05;;;;;;;27.10;7.03;;;;;;;8.36;61.39;100800.53;5257149;28;20509;-46
2022/01/31 03:53:39;;;;;;;30.27;6.95;;;;;;;8.38;61.33;100783.66;5260350;28;20440;-52
2022/01/31 03:56:11;;;;;;;26.25;7.25;;;;;;;8.37;61.30;100776.72;5260603;28;20609;-49
2022/01/31 03:58:44;;;;;;;43.03;7.53;;;;;;;8.37;61.40;100783.78;5260493;27;20420;-47
2022/01/31 04:01:16;;;;;;;23.60;7.50;;;;;;;8.37;61.29;100783.78;5265159;28;20529;-51
2022/01/31 04:03:48;;;;;;;27.85;7.45;;;;;;;8.37;61.27;100768.81;5259574;28;20536;-55
2022/01/31 04:06:23;;;;;;;36.40;9.35;;;;;;;8.24;61.24;100745.41;5264424;28;20824;-50
2022/01/31 04:08:57;;;;;;;28.00;8.25;;;;;;;8.38;61.16;100761.75;5259939;28;20407;-49
2022/01/31 04:11:29;;;;;;;33.33;8.63;;;;;;;8.40;61.10;100750.16;5256094;28;20504;-52
2022/01/31 04:14:02;;;;;;;26.45;7.53;;;;;;;8.41;61.04;100741.28;5264792;27;20400;-53
2022/01/31 04:16:34;;;;;;;32.30;7.15;;;;;;;8.41;61.13;100751.00;5261857;28;20511;-45
2022/01/31 04:19:06;;;;;;;30.33;7.55;;;;;;;8.40;61.08;100739.63;5263798;27;20423;-50
2022/01/31 04:21:39;;;;;;;24.48;6.65;;;;;;;8.40;61.01;100730.91;5264779;28;20414;-47
2022/01/31 04:24:18;;;;;;;34.10;9.18;;;;;;;8.34;61.12;100736.69;5263075;27;20898;-46
2022/01/31 04:26:59;;;;;;;25.90;6.70;;;;;;;8.39;61.02;100716.06;5257891;27;20421;-47
2022/01/31 04:29:33;;;;;;;29.38;6.15;;;;;;;8.36;61.07;100729.47;5261574;28;20728;-50
2022/01/31 04:32:07;;;;;;;28.03;7.60;;;;;;;8.33;61.10;100733.25;5263826;27;20488;-47
2022/01/31 04:34:40;;;;;;;26.17;5.93;;;;;;;8.31;61.03;100754.41;5260533;28;20418;-46
2022/01/31 04:37:13;;;;;;;19.90;6.38;;;;;;;8.24;61.20;100745.41;5260558;28;20429;-47
2022/01/31 04:39:47;;;;;;;21.80;6.72;;;;;;;8.14;61.17;100747.19;5258919;28;20402;-49
2022/01/31 04:42:19;;;;;;;24.58;6.88;;;;;;;8.07;61.15;100735.53;5264282;28;20438;-48
2022/01/31 04:44:53;;;;;;;26.55;7.38;;;;;;;8.03;61.08;100742.88;5256826;28;20411;-50
2022/01/31 04:47:26;;;;;;;26.85;6.20;;;;;;;7.97;61.08;100746.06;5262432;27;20412;-48
2022/01/31 04:49:58;;;;;;;24.55;6.95;;;;;;;7.89;61.16;100753.78;5254118;28;20501;-50
2022/01/31 04:52:31;;;;;;;25.55;5.35;;;;;;;7.82;61.26;100740.34;5263609;28;20905;-44
2022/01/31 04:55:06;;;;;;;28.92;6.00;;;;;;;7.78;61.39;100728.44;5257643;27;20499;-46
2022/01/31 04:57:39;;;;;;;21.08;4.90;;;;;;;7.77;61.26;100716.25;5263610;28;20432;-45
2022/01/31 05:00:14;;;;;;;28.88;6.50;;;;;;;7.77;61.24;100713.63;5262066;27;20406;-49
2022/01/31 05:02:47;;;;;;;23.08;5.70;;;;;;;7.75;61.36;100699.78;5261069;27;20798;-45
2022/01/31 05:05:19;;;;;;;27.75;8.35;;;;;;;7.74;61.25;100708.66;5263793;28;20440;-46
2022/01/31 05:07:54;;;;;;;29.20;7.03;;;;;;;7.72;61.18;100721.09;5269989;28;20405;-48
2022/01/31 05:10:33;;;;;;;30.40;6.68;;;;;;;7.71;61.29;100737.84;5265616;27;20885;-46
2022/01/31 05:13:05;;;;;;;20.70;5.65;;;;;;;7.69;61.28;100733.66;5266347;28;20430;-48
2022/01/31 05:15:37;;;;;;;20.67;6.13;;;;;;;7.63;61.32;100732.41;5263893;28;21023;-48
2022/01/31 05:18:10;;;;;;;31.83;7.32;;;;;;;7.63;61.44;100714.00;5267696;28;20416;-46
2022/01/31 05:20:43;;;;;;;28.77;6.38;;;;;;;7.59;61.30;100718.69;5255758;27;20504;-45
2022/01/31 05:23:15;;;;;;;33.55;7.18;;;;;;;7.58;61.47;100721.44;5264430;27;20412;-45
2022/01/31 05:25:49;;;;;;;32.70;8.43;;;;;;;7.56;61.54;100716.34;5263771;28;20895;-46
2022/01/31 05:28:21;;;;;;;43.17;8.63;;;;;;;7.56;61.64;100712.88;5264099;28;20824;-45
2022/01/31 05:30:54;;;;;;;33.30;8.23;;;;;;;7.52;61.48;100738.56;5265153;27;20413;-44
2022/01/31 05:33:26;;;;;;;32.13;9.30;;;;;;;7.58;61.51;100717.00;5260695;28;20898;-46
2022/01/31 05:35:59;;;;;;;42.25;8.77;;;;;;;7.55;61.64;100711.19;5271825;28;20526;-45
2022/01/31 05:38:34;;;;;;;30.30;7.55;;;;;;;7.58;61.56;100710.94;5263465;27;20509;-45
2022/01/31 05:41:11;;;;;;;40.08;7.13;;;;;;;7.54;61.44;100704.28;5270070;28;20423;-49
2022/01/31 05:43:43;;;;;;;28.42;8.57;;;;;;;7.53;61.64;100705.25;5262588;28;20441;-49
2022/01/31 05:46:16;;;;;;;35.47;6.75;;;;;;;7.33;61.64;100697.28;5262021;28;20422;-54
2022/01/31 05:48:48;;;;;;;31.50;6.85;;;;;;;7.30;61.66;100679.16;5262158;27;20554;-49
2022/01/31 05:51:23;;;;;;;30.58;8.05;;;;;;;7.50;61.70;100708.16;5267779;28;20392;-46
2022/01/31 05:53:55;;;;;;;29.83;7.10;;;;;;;7.53;61.55;100702.63;5268222;28;20796;-45
2022/01/31 05:56:29;;;;;;;33.93;9.17;;;;;;;7.49;61.84;100706.47;5256984;28;20408;-57
2022/01/31 05:59:02;;;;;;;25.70;7.32;;;;;;;7.50;61.77;100698.47;5261280;27;20412;-45
2022/01/31 06:01:38;;;;;;;24.67;6.07;;;;;;;7.49;61.64;100688.06;5263467;27;20547;-45
2022/01/31 06:04:11;;;;;;;25.98;6.78;;;;;;;7.49;61.85;100696.78;5262754;28;20501;-51
2022/01/31 06:06:43;;;;;;;22.40;5.20;;;;;;;7.50;61.88;100681.88;5268877;28;20424;-45
2022/01/31 06:09:15;;;;;;;23.73;5.88;;;;;;;7.48;61.75;100683.78;5268374;27;20424;-46
2022/01/31 06:11:49;;;;;;;29.05;6.53;;;;;;;7.47;61.89;100695.28;5264676;28;20429;-46
2022/01/31 06:14:22;;;;;;;23.38;6.70;;;;;;;7.49;61.74;100680.19;5263459;28;20412;-47
2022/01/31 06:16:54;;;;;;;25.27;5.57;;;;;;;7.47;61.86;100700.53;5268065;28;20419;-47
2022/01/31 06:19:26;;;;;;;23.33;5.78;;;;;;;7.43;61.88;100678.09;5258474;28;20743;-47
2022/01/31 06:21:59;;;;;;;34.38;8.07;;;;;;;7.47;61.84;100695.28;5263235;28;20406;-47
2022/01/31 06:24:31;;;;;;;27.63;6.53;;;;;;;7.47;61.85;100695.28;5266816;27;20834;-51
2022/01/31 06:27:05;;;;;;;28.00;6.73;;;;;;;7.49;62.23;100685.44;5263941;28;20491;-48
2022/01/31 06:29:38;;;;;;;29.93;6.70;;;;;;;7.48;61.88;100679.38;5259684;28;20867;-45
2022/01/31 06:32:10;;;;;;;19.08;5.45;;;;;;;7.48;62.13;100668.03;5263589;28;21003;-48
2022/01/31 06:34:43;;;;;;;22.65;6.72;;;;;;;7.43;62.08;100659.72;5265996;28;20824;-53
2022/01/31 06:37:15;;;;;;;26.58;6.50;;;;;;;7.48;62.03;100673.28;5270635;28;20774;-52
2022/01/31 06:39:47;;;;;;;32.07;8.33;;;;;;;7.42;62.08;100684.31;5263030;28;20481;-47
2022/01/31 06:42:21;;;;;;;24.17;6.70;;;;;;;7.49;62.02;100677.56;5257587;28;20491;-46
2022/01/31 06:44:53;;;;;;;33.67;6.70;;;;;;;7.48;62.05;100675.91;5254099;28;20477;-49
2022/01/31 06:47:27;;;;;;;28.20;6.63;;;;;;;7.49;62.04;100669.69;5259194;28;20408;-47
2022/01/31 06:50:00;;;;;;;27.85;7.55;;;;;;;7.49;62.14;100667.06;5260416;28;20408;-49
2022/01/31 06:52:34;;;;;;;28.98;6.38;;;;;;;7.32;62.08;100642.28;5263459;28;20666;-47
2022/01/31 06:55:15;;;;;;;40.75;8.68;;;;;;;7.54;61.97;100684.09;5264674;27;20499;-49
2022/01/31 06:57:51;;;;;;;28.45;6.63;;;;;;;7.56;62.04;100683.97;5267811;27;20416;-46
2022/01/31 07:00:24;;;;;;;33.25;7.82;;;;;;;7.57;61.97;100683.00;5271079;28;20400;-47
2022/01/31 07:02:56;;;;;;;28.98;7.07;;;;;;;7.58;62.01;100671.50;5255501;28;20420;-47
2022/01/31 07:05:29;;;;;;;30.63;7.33;;;;;;;7.60;62.16;100682.72;5260758;27;20930;-45
2022/01/31 07:08:19;;;;;;;31.45;7.95;;;;;;;7.50;62.15;100682.69;5262619;28;20837;-48
2022/01/31 07:10:52;;;;;;;35.63;8.68;;;;;;;7.57;62.04;100694.34;5258113;28;20558;-48
2022/01/31 07:13:37;;;;;;;32.72;7.88;;;;;;;7.57;62.04;100690.88;5261858;27;20583;-47
2022/01/31 07:16:10;;;;;;;28.08;7.10;;;;;;;7.34;61.94;100645.56;5263361;28;20415;-47
2022/01/31 07:18:43;;;;;;;36.43;8.90;;;;;;;7.54;61.96;100686.72;5268529;27;20501;-45
2022/01/31 07:21:17;;;;;;;39.25;7.90;;;;;;;7.61;62.05;100702.78;5263360;27;20523;-46
2022/01/31 07:24:05;;;;;;;39.78;8.75;;;;;;;7.61;62.10;100694.91;5263642;27;20412;-45
2022/01/31 07:26:37;;;;;;;35.97;7.75;;;;;;;7.65;62.09;100685.78;5264267;28;20434;-45
2022/01/31 07:29:11;;;;;;;36.20;7.15;;;;;;;7.68;61.83;100696.03;5265507;28;20775;-52
2022/01/31 07:31:45;;;;;;;29.65;6.60;;;;;;;7.66;61.99;100692.72;5263709;28;20501;-50
2022/01/31 07:34:18;;;;;;;33.93;8.90;;;;;;;7.63;61.81;100704.31;5265261;28;20400;-49
2022/01/31 07:36:51;;;;;;;26.73;7.88;;;;;;;7.64;61.92;100697.25;5263436;27;20408;-45
2022/01/31 07:39:24;;;;;;;38.28;9.27;;;;;;;7.63;62.01;100698.22;5261846;27;20409;-44
2022/01/31 07:41:56;;;;;;;31.30;7.25;;;;;;;7.63;61.92;100708.75;5259974;28;20512;-47
2022/01/31 07:44:30;;;;;;;32.25;8.40;;;;;;;7.59;62.07;100707.34;5241781;28;20416;-49
2022/01/31 07:47:03;;;;;;;35.60;8.95;;;;;;;7.60;61.99;100695.88;5250655;28;20427;-50
2022/01/31 07:49:35;;;;;;;31.27;7.30;;;;;;;7.60;62.16;100709.00;5261962;27;20439;-50
2022/01/31 07:52:09;;;;;;;39.22;9.07;;;;;;;7.61;62.06;100708.03;5266052;28;20891;-49
2022/01/31 07:54:43;;;;;;;32.20;6.10;;;;;;;7.58;62.09;100705.69;5266570;28;20408;-49
2022/01/31 07:57:16;;;;;;;34.83;8.00;;;;;;;7.56;62.15;100731.28;5265766;28;20428;-50
2022/01/31 07:59:50;;;;;;;41.95;8.90;;;;;;;7.56;62.08;100736.53;5274658;27;20993;-45
2022/01/31 08:02:23;;;;;;;43.63;10.77;;;;;;;7.57;61.97;100709.28;5257701;28;20514;-49
2022/01/31 08:04:55;;;;;;;38.97;9.10;;;;;;;7.55;62.08;100732.22;5265153;27;20416;-51
2022/01/31 08:07:28;;;;;;;33.53;9.18;;;;;;;7.55;62.14;100758.50;5262049;28;20408;-49
2022/01/31 08:10:01;;;;;;;42.15;8.45;;;;;;;7.56;62.02;100760.19;5258604;27;20529;-45
2022/01/31 08:12:36;;;;;;;16.92;5.80;;;;;;;7.47;62.00;100734.69;5262696;27;20438;-47
2022/01/31 08:15:19;;;;;;;35.83;8.93;;;;;;;7.52;62.03;100764.03;5255004;27;20442;-51
2022/01/31 08:17:52;;;;;;;41.83;8.57;;;;;;;7.50;61.95;100758.09;5260771;27;20716;-49
2022/01/31 08:20:24;;;;;;;45.00;10.82;;;;;;;7.50;61.98;100779.09;5257599;27;20429;-50
2022/01/31 08:22:57;;;;;;;36.13;8.38;;;;;;;7.54;61.93;100743.72;5262262;27;20504;-50
2022/01/31 08:25:35;;;;;;;39.03;7.43;;;;;;;7.31;62.16;100741.25;5263213;28;20779;-46
2022/01/31 08:28:11;;;;;;;42.13;9.50;;;;;;;7.48;61.92;100783.66;5257128;28;20428;-44
2022/01/31 08:30:51;;;;;;;35.20;9.52;;;;;;;7.50;62.10;100793.06;5256681;27;20420;-45
2022/01/31 08:33:33;;;;;;;43.93;10.33;;;;;;;7.50;62.01;100800.97;5257122;27;21040;-45
2022/01/31 08:36:08;;;;;;;44.22;9.35;;;;;;;7.50;62.09;100808.00;5252576;28;20411;-45
2022/01/31 08:38:44;;;;;;;55.47;12.40;;;;;;;7.41;62.12;100795.66;5252385;28;20534;-43
2022/01/31 08:41:17;;;;;;;42.92;11.30;;;;;;;7.49;62.13;100790.56;5252683;28;20430;-51
2022/01/31 08:43:49;;;;;;;43.72;8.68;;;;;;;7.51;62.18;100809.66;5263165;27;20893;-47
2022/01/31 08:46:23;;;;;;;43.55;9.95;;;;;;;7.49;62.21;100817.66;5260121;27;20419;-48
2022/01/31 08:48:58;;;;;;;46.13;10.20;;;;;;;7.53;62.11;100803.31;5263860;27;20408;-47
2022/01/31 08:51:30;;;;;;;49.30;10.93;;;;;;;7.54;61.94;100801.53;5253993;27;20568;-44
2022/01/31 08:54:05;;;;;;;37.35;7.85;;;;;;;7.57;62.03;100817.84;5258516;27;20964;-45
2022/01/31 08:56:43;;;;;;;39.15;9.20;;;;;;;7.34;62.01;100797.94;5266168;27;20903;-46
2022/01/31 08:59:19;;;;;;;40.83;9.85;;;;;;;7.53;61.88;100803.31;5259122;28;21227;-49
2022/01/31 09:02:03;;;;;;;47.80;10.95;;;;;;;7.48;61.82;100826.53;5258680;28;20422;-48
2022/01/31 09:04:47;;;;;;;43.65;10.13;;;;;;;7.50;61.92;100840.38;5257959;27;20412;-45
2022/01/31 09:07:22;;;;;;;50.45;11.00;;;;;;;7.49;62.01;100824.72;5262457;27;20433;-49
2022/01/31 09:09:55;;;;;;;49.58;9.77;;;;;;;7.50;62.07;100829.88;5264077;27;20416;-46
2022/01/31 09:12:32;;;;;;;50.28;9.48;;;;;;;7.52;61.87;100842.84;5262905;27;21364;-49
2022/01/31 09:15:07;;;;;;;42.70;12.02;;;;;;;7.51;62.09;100846.47;5264019;27;20431;-44
2022/01/31 09:17:41;;;;;;;59.70;14.40;;;;;;;7.53;61.85;100865.56;5263161;27;20408;-42
2022/01/31 09:20:13;;;;;;;43.33;11.20;;;;;;;7.35;61.81;100844.28;5262813;28;20506;-46
2022/01/31 09:22:46;;;;;;;55.55;13.57;;;;;;;7.53;61.83;100884.78;5264449;28;20508;-46
2022/01/31 09:25:18;;;;;;;64.53;15.05;;;;;;;7.52;61.92;100884.91;5262757;27;20399;-46
2022/01/31 09:27:50;;;;;;;64.75;13.55;;;;;;;7.52;61.97;100884.91;5263283;28;20523;-43
2022/01/31 09:30:23;;;;;;;56.20;12.75;;;;;;;7.54;61.79;100888.25;5265837;27;20420;-47
2022/01/31 09:32:58;;;;;;;62.13;12.30;;;;;;;7.55;61.91;100900.41;5261080;28;20428;-45
2022/01/31 09:35:31;;;;;;;56.58;14.68;;;;;;;7.60;61.80;100908.75;5262304;27;20427;-46
2022/01/31 09:38:08;;;;;;;50.00;12.40;;;;;;;7.60;61.87;100906.13;5265560;27;20499;-50
2022/01/31 09:40:41;;;;;;;59.03;12.43;;;;;;;7.60;61.89;100903.50;5262726;27;20415;-46
2022/01/31 09:43:54;;;;;;;43.95;9.93;;;;;;;7.61;61.96;100899.91;5264046;28;20415;-44
2022/01/31 09:49:26;;;;;;;58.83;12.13;;;;;;;7.66;61.80;100928.44;5256217;28;20432;-43
2022/01/31 09:51:59;;;;;;;48.00;9.98;;;;;;;7.59;62.07;100907.94;5255866;27;20400;-49
2022/01/31 09:54:31;;;;;;;47.45;11.52;;;;;;;7.48;61.88;100904.53;5263076;27;20517;-44
2022/01/31 09:57:04;;;;;;;50.80;11.97;;;;;;;7.66;61.92;100921.38;5264887;28;20408;-44
2022/01/31 09:59:36;;;;;;;52.03;12.32;;;;;;;7.61;61.84;100934.06;5263309;28;20436;-46
2022/01/31 10:02:14;;;;;;;53.30;11.02;;;;;;;7.67;61.97;100930.94;5262571;27;20422;-45
2022/01/31 10:04:49;;;;;;;53.92;11.77;;;;;;;7.67;61.78;100957.22;5266507;28;25738;-44
2022/01/31 10:07:21;;;;;;;37.03;9.48;;;;;;;7.67;61.86;100951.97;5267465;28;21103;-47
2022/01/31 10:09:54;;;;;;;50.22;10.55;;;;;;;7.67;61.87;100948.50;5267692;28;20771;-47
2022/01/31 10:16:24;;;;;;;39.40;8.32;;;;;;;7.67;61.88;100962.47;5265686;28;20412;-46
2022/01/31 10:18:09;;;;;;;44.33;12.27;;;;;;;7.63;61.96;100979.47;5258722;28;20400;-45
2022/01/31 10:20:43;;;;;;;47.60;10.00;;;;;;;7.66;62.00;100966.06;5264600;28;20438;-44
2022/01/31 10:23:16;;;;;;;49.10;9.93;;;;;;;7.60;61.91;100972.66;5263259;28;20807;-46
2022/01/31 10:25:48;;;;;;;47.03;11.98;;;;;;;7.69;61.86;100991.28;5263596;28;20408;-46
2022/01/31 10:28:23;;;;;;;38.38;8.55;;;;;;;7.41;61.83;100953.31;5264573;28;20450;-46
2022/01/31 10:30:56;;;;;;;44.88;11.05;;;;;;;7.69;61.88;100992.09;5262384;28;20496;-48
2022/01/31 10:33:33;;;;;;;50.37;13.47;;;;;;;7.69;61.94;100996.53;5263010;28;20428;-47
2022/01/31 10:36:21;;;;;;;59.58;11.50;;;;;;;7.69;61.66;100989.47;5261489;28;20948;-43
2022/01/31 10:39:13;;;;;;;45.35;10.75;;;;;;;7.64;61.65;100978.50;5262253;28;20408;-44
2022/01/31 10:44:59;;;;;;;50.60;12.77;;;;;;;7.71;61.82;101007.75;5264918;28;20793;-47
2022/01/31 10:53:14;;;;;;;52.97;12.15;;;;;;;7.64;61.84;101010.03;5263433;28;20412;-53
2022/01/31 10:55:55;;;;;;;45.10;10.32;;;;;;;7.58;62.11;101036.84;5262128;28;20538;-44
2022/01/31 10:58:30;;;;;;;39.15;10.77;;;;;;;7.57;62.03;101038.63;5263445;27;20488;-47
2022/01/31 11:01:13;;;;;;;54.97;11.95;;;;;;;7.57;61.98;101028.13;5263859;28;20461;-44
2022/01/31 11:03:46;;;;;;;45.40;11.52;;;;;;;7.56;61.84;101013.31;5264770;28;20419;-44
2022/01/31 11:06:19;;;;;;;61.42;11.55;;;;;;;7.54;61.85;101030.16;5260998;27;20412;-45
2022/01/31 11:09:00;;;;;;;56.43;12.67;;;;;;;7.51;61.99;101035.69;5265918;28;20435;-50
2022/01/31 11:11:33;;;;;;;49.88;11.50;;;;;;;7.52;61.86;101042.59;5263350;27;20427;-47
2022/01/31 11:14:07;;;;;;;57.63;13.43;;;;;;;7.52;61.83;101032.91;5265515;28;20875;-46
2022/01/31 11:16:42;;;;;;;43.50;10.00;;;;;;;7.49;62.01;101050.72;5258441;28;20446;-45
2022/01/31 11:19:22;;;;;;;62.30;13.85;;;;;;;7.51;61.95;101057.53;5247132;28;20429;-44
2022/01/31 11:21:59;;;;;;;62.23;13.03;;;;;;;7.52;61.85;101053.09;5262682;28;20929;-51
2022/01/31 11:24:43;;;;;;;60.70;12.27;;;;;;;7.55;61.83;101061.56;5257301;27;20412;-42
2022/01/31 11:27:19;;;;;;;69.75;16.23;;;;;;;7.58;61.92;101065.75;5266912;27;20514;-48
2022/01/31 11:29:55;;;;;;;64.80;14.27;;;;;;;7.60;61.75;101072.56;5257041;28;20442;-47
2022/01/31 11:32:29;;;;;;;68.43;13.57;;;;;;;7.63;61.80;101066.22;5260179;28;20480;-44
2022/01/31 11:35:03;;;;;;;49.58;12.02;;;;;;;7.64;61.71;101078.38;5259659;28;20396;-46
2022/01/31 11:37:36;;;;;;;64.45;15.00;;;;;;;7.66;61.79;101067.75;5263103;28;20835;-44
2022/01/31 11:40:13;;;;;;;63.35;16.02;;;;;;;7.56;61.72;101078.19;5260446;28;20424;-44
2022/01/31 11:42:48;;;;;;;63.75;15.15;;;;;;;7.69;62.00;101078.84;5263970;28;20481;-47
2022/01/31 11:45:26;;;;;;;62.38;15.18;;;;;;;7.69;61.71;101094.63;5261686;27;21196;-45
2022/01/31 11:48:03;;;;;;;53.33;12.80;;;;;;;7.68;61.68;101116.63;5261434;28;20405;-44
2022/01/31 11:50:43;;;;;;;56.60;13.25;;;;;;;7.69;61.98;101099.06;5265296;28;20499;-48
2022/01/31 11:53:25;;;;;;;51.70;13.07;;;;;;;7.71;61.81;101105.88;5257986;28;20974;-45
2022/01/31 11:56:07;;;;;;;52.22;13.20;;;;;;;7.69;61.75;101084.13;5246593;28;20408;-47
2022/01/31 11:58:47;;;;;;;70.47;15.90;;;;;;;7.75;61.77;101120.44;5262449;28;20415;-46
2022/01/31 12:01:21;;;;;;;47.38;11.40;;;;;;;7.78;61.77;101106.19;5263014;28;20917;-48
2022/01/31 12:03:57;;;;;;;68.65;14.13;;;;;;;7.78;61.73;101133.31;5263453;28;20503;-44
2022/01/31 12:06:30;;;;;;;62.95;14.85;;;;;;;7.76;61.87;101135.22;5256776;27;20402;-48
2022/01/31 12:09:06;;;;;;;58.95;13.63;;;;;;;7.76;61.78;101137.84;5258906;28;20896;-46